createdAt,value
2022-10-28T00:01:20.451Z,7.22
2022-10-28T00:04:01.412Z,8.50
2022-10-28T00:06:31.996Z,8.70
2022-10-28T00:09:00.194Z,7.07
2022-10-28T00:11:33.572Z,7.70
2022-10-28T00:14:04.045Z,7.88
2022-10-28T00:16:34.825Z,7.35
2022-10-28T00:19:03.820Z,7.63
2022-10-28T00:21:34.157Z,7.78
2022-10-28T00:24:01.572Z,8.70
2022-10-28T00:26:31.514Z,7.50
2022-10-28T00:29:02.357Z,7.53
2022-10-28T00:31:36.395Z,7.22
2022-10-28T00:36:49.335Z,10.52
2022-10-28T00:39:22.717Z,9.65
2022-10-28T00:41:56.490Z,8.68
2022-10-28T00:44:48.619Z,7.93
2022-10-28T00:47:37.624Z,8.32
2022-10-28T00:50:22.752Z,8.35
2022-10-28T00:53:01.448Z,8.25
2022-10-28T00:55:30.671Z,9.07
2022-10-28T00:57:59.653Z,8.18
2022-10-28T01:00:27.423Z,7.93
2022-10-28T01:02:56.461Z,8.63
2022-10-28T01:05:29.034Z,8.48
2022-10-28T01:08:00.372Z,7.47
2022-10-28T01:10:59.464Z,8.98
2022-10-28T01:13:38.521Z,7.40
2022-10-28T01:16:14.776Z,8.07
2022-10-28T01:19:18.007Z,7.88
2022-10-28T01:22:14.150Z,7.60
2022-10-28T01:25:02.853Z,7.97
2022-10-28T01:27:39.461Z,6.45
2022-10-28T01:30:11.571Z,6.95
2022-10-28T01:32:47.740Z,7.53
2022-10-28T01:35:33.009Z,6.75
2022-10-28T01:38:26.772Z,6.82
2022-10-28T01:41:08.579Z,7.03
2022-10-28T01:43:54.028Z,7.10
2022-10-28T01:46:26.992Z,7.35
2022-10-28T01:49:10.390Z,7.32
2022-10-28T01:51:44.517Z,7.20
2022-10-28T01:54:17.553Z,7.35
2022-10-28T01:56:47.206Z,7.28
2022-10-28T01:59:22.086Z,8.77
2022-10-28T02:01:49.520Z,7.20
2022-10-28T02:04:17.316Z,7.55
2022-10-28T02:06:48.213Z,8.48
2022-10-28T02:12:03.454Z,7.43
2022-10-28T02:14:46.017Z,8.50
2022-10-28T02:17:38.485Z,7.57
2022-10-28T02:20:29.687Z,6.93
2022-10-28T02:23:03.111Z,6.32
2022-10-28T02:25:41.481Z,7.35
2022-10-28T02:28:12.965Z,6.22
2022-10-28T02:30:51.255Z,6.38
2022-10-28T02:33:26.425Z,6.88
2022-10-28T02:36:01.989Z,7.03
2022-10-28T02:38:39.981Z,7.25
2022-10-28T02:41:16.313Z,7.10
2022-10-28T02:43:45.833Z,7.60
2022-10-28T02:46:14.814Z,8.50
2022-10-28T02:48:48.352Z,8.43
2022-10-28T02:51:20.004Z,7.97
2022-10-28T02:54:05.998Z,9.38
2022-10-28T02:56:41.235Z,8.43
2022-10-28T02:59:13.239Z,8.68
2022-10-28T03:01:40.876Z,8.68
2022-10-28T03:04:09.483Z,10.40
2022-10-28T03:06:36.949Z,9.10
2022-10-28T03:09:04.460Z,8.80
2022-10-28T03:11:31.902Z,8.48
2022-10-28T03:13:59.257Z,9.05
2022-10-28T03:16:26.820Z,10.05
2022-10-28T03:18:54.464Z,8.27
2022-10-28T03:21:21.850Z,9.63
2022-10-28T03:23:49.228Z,10.13
2022-10-28T03:26:16.636Z,9.73
2022-10-28T03:28:44.042Z,8.85
2022-10-28T03:31:11.426Z,9.07
2022-10-28T03:33:38.774Z,9.10
2022-10-28T03:36:06.528Z,9.13
2022-10-28T03:38:33.877Z,8.30
2022-10-28T03:41:01.269Z,9.40
2022-10-28T03:43:28.646Z,8.07
2022-10-28T03:45:56.046Z,9.80
2022-10-28T03:48:23.460Z,9.80
2022-10-28T03:50:54.617Z,9.65
2022-10-28T03:53:26.263Z,11.18
2022-10-28T03:55:58.608Z,9.70
2022-10-28T03:58:26.560Z,9.70
2022-10-28T04:00:55.157Z,9.85
2022-10-28T04:03:23.861Z,10.25
2022-10-28T04:05:51.334Z,10.15
2022-10-28T04:08:19.811Z,10.57
2022-10-28T04:10:47.855Z,10.52
2022-10-28T04:13:16.354Z,9.18
2022-10-28T04:15:44.064Z,10.10
2022-10-28T04:18:12.313Z,10.13
2022-10-28T04:20:39.820Z,10.75
2022-10-28T04:23:07.281Z,11.45
2022-10-28T04:25:34.659Z,9.35
2022-10-28T04:28:02.056Z,10.50
2022-10-28T04:30:29.416Z,10.02
2022-10-28T04:32:56.735Z,10.60
2022-10-28T04:35:24.535Z,11.30
2022-10-28T04:37:52.321Z,11.25
2022-10-28T04:40:19.937Z,9.55
2022-10-28T04:42:47.280Z,10.10
2022-10-28T04:45:15.704Z,9.90
2022-10-28T04:47:43.067Z,10.52
2022-10-28T04:50:10.443Z,8.90
2022-10-28T04:52:37.846Z,10.57
2022-10-28T04:55:05.544Z,10.43
2022-10-28T04:57:33.101Z,11.32
2022-10-28T05:00:00.490Z,9.90
2022-10-28T05:02:27.916Z,9.85
2022-10-28T05:04:55.316Z,10.80
2022-10-28T05:07:23.619Z,10.82
2022-10-28T05:09:51.199Z,10.25
2022-10-28T05:12:18.585Z,10.65
2022-10-28T05:14:47.202Z,9.75
2022-10-28T05:17:16.529Z,9.52
2022-10-28T05:19:45.288Z,9.63
2022-10-28T05:22:12.721Z,8.85
2022-10-28T05:24:40.139Z,9.77
2022-10-28T05:27:07.663Z,9.43
2022-10-28T05:29:35.062Z,9.15
2022-10-28T05:34:36.227Z,8.18
2022-10-28T05:37:03.639Z,9.30
2022-10-28T05:39:30.961Z,8.35
2022-10-28T05:41:58.330Z,7.85
2022-10-28T05:44:25.657Z,9.15
2022-10-28T05:46:54.169Z,7.57
2022-10-28T05:49:21.612Z,7.43
2022-10-28T05:51:49.215Z,8.82
2022-10-28T05:54:16.582Z,7.10
2022-10-28T05:56:43.894Z,6.68
2022-10-28T05:59:11.224Z,6.13
2022-10-28T06:01:39.722Z,5.88
2022-10-28T06:04:07.462Z,5.88
2022-10-28T06:06:34.995Z,6.35
2022-10-28T06:09:02.394Z,6.38
2022-10-28T06:11:28.294Z,6.40
2022-10-28T06:13:55.662Z,8.75
2022-10-28T06:16:23.071Z,6.45
2022-10-28T06:18:51.802Z,5.32
2022-10-28T06:21:19.212Z,5.53
2022-10-28T06:23:46.870Z,7.80
2022-10-28T06:26:14.248Z,6.35
2022-10-28T06:28:41.584Z,6.22
2022-10-28T06:31:09.004Z,6.95
2022-10-28T06:33:36.514Z,5.25
2022-10-28T06:36:04.187Z,5.20
2022-10-28T06:38:31.619Z,7.65
2022-10-28T06:40:59.174Z,6.18
2022-10-28T06:43:26.772Z,6.57
2022-10-28T06:45:55.750Z,5.45
2022-10-28T06:48:24.985Z,6.00
2022-10-28T06:50:56.202Z,5.13
2022-10-28T06:53:24.443Z,6.47
2022-10-28T06:55:56.077Z,6.13
2022-10-28T06:58:24.267Z,5.35
2022-10-28T07:00:53.271Z,7.18
2022-10-28T07:03:21.038Z,5.95
2022-10-28T07:05:51.539Z,6.28
2022-10-28T07:08:19.148Z,6.15
2022-10-28T07:10:56.757Z,5.50
2022-10-28T07:13:24.867Z,6.57
2022-10-28T07:15:54.028Z,6.32
2022-10-28T07:18:22.160Z,7.03
2022-10-28T07:20:50.022Z,5.50
2022-10-28T07:23:18.084Z,6.35
2022-10-28T07:25:55.330Z,5.07
2022-10-28T07:28:24.083Z,5.65
2022-10-28T07:30:51.762Z,6.28
2022-10-28T07:33:19.718Z,6.13
2022-10-28T07:35:47.174Z,6.07
2022-10-28T07:38:14.834Z,7.60
2022-10-28T07:40:42.176Z,6.47
2022-10-28T07:43:09.726Z,6.57
2022-10-28T07:45:37.881Z,6.82
2022-10-28T07:48:06.459Z,6.88
2022-10-28T07:50:33.923Z,5.82
2022-10-28T07:53:01.396Z,6.10
2022-10-28T07:55:28.869Z,4.85
2022-10-28T07:57:56.600Z,6.10
2022-10-28T08:00:24.257Z,6.25
2022-10-28T08:02:51.667Z,6.13
2022-10-28T08:05:19.188Z,5.00
2022-10-28T08:07:47.919Z,5.97
2022-10-28T08:10:15.335Z,5.35
2022-10-28T08:12:42.933Z,6.20
2022-10-28T08:15:10.720Z,5.65
2022-10-28T08:17:38.186Z,6.32
2022-10-28T08:20:06.164Z,6.00
2022-10-28T08:22:33.547Z,7.38
2022-10-28T08:25:00.918Z,6.25
2022-10-28T08:27:28.381Z,5.32
2022-10-28T08:29:55.895Z,6.50
2022-10-28T08:32:23.292Z,5.85
2022-10-28T08:34:50.771Z,5.65
2022-10-28T08:37:18.179Z,5.82
2022-10-28T08:39:45.678Z,5.78
2022-10-28T08:42:56.651Z,5.85
2022-10-28T08:48:35.841Z,5.45
2022-10-28T08:51:24.949Z,4.55
2022-10-28T08:54:03.058Z,5.28
2022-10-28T08:56:46.038Z,4.82
2022-10-28T08:59:20.032Z,4.57
2022-10-28T09:04:40.034Z,4.13
2022-10-28T09:07:26.035Z,3.55
2022-10-28T09:09:54.869Z,3.60
2022-10-28T09:12:46.730Z,2.80
2022-10-28T09:15:36.321Z,3.28
2022-10-28T09:18:26.604Z,3.40
2022-10-28T09:20:56.545Z,3.27
2022-10-28T09:23:31.209Z,2.70
2022-10-28T09:26:13.338Z,2.70
2022-10-28T09:29:11.533Z,2.10
2022-10-28T09:31:51.025Z,1.70
2022-10-28T09:34:18.356Z,1.83
2022-10-28T09:37:27.103Z,2.25
2022-10-28T09:40:20.446Z,1.90
2022-10-28T09:43:26.366Z,2.05
2022-10-28T09:45:58.369Z,2.10
2022-10-28T09:48:37.005Z,1.52
2022-10-28T09:51:04.980Z,2.25
2022-10-28T09:53:46.990Z,1.80
2022-10-28T09:56:15.457Z,1.80
2022-10-28T09:58:49.262Z,2.13
2022-10-28T10:01:20.164Z,2.33
2022-10-28T10:06:20.115Z,1.92
2022-10-28T10:08:48.257Z,1.60
2022-10-28T10:11:23.337Z,1.73
2022-10-28T10:13:52.531Z,1.67
2022-10-28T10:16:50.087Z,1.80
2022-10-28T10:19:17.440Z,3.85
2022-10-28T10:21:44.804Z,2.08
2022-10-28T10:24:31.340Z,1.70
2022-10-28T10:27:13.442Z,1.90
2022-10-28T10:29:50.175Z,2.28
2022-10-28T10:32:27.164Z,2.20
2022-10-28T10:35:17.019Z,1.88
2022-10-28T10:37:47.167Z,2.60
2022-10-28T10:40:33.486Z,2.13
2022-10-28T10:43:18.909Z,1.90
2022-10-28T10:46:05.156Z,1.70
2022-10-28T10:48:36.423Z,2.70
2022-10-28T10:51:12.090Z,2.13
2022-10-28T10:53:40.293Z,2.75
2022-10-28T10:56:11.052Z,2.20
2022-10-28T11:01:09.650Z,1.83
2022-10-28T11:03:47.665Z,2.10
2022-10-28T11:06:27.230Z,1.77
2022-10-28T11:09:02.590Z,1.50
2022-10-28T11:11:40.582Z,1.52
2022-10-28T11:14:10.815Z,2.05
2022-10-28T11:16:48.820Z,1.73
2022-10-28T11:19:34.653Z,1.65
2022-10-28T11:22:17.247Z,1.27
2022-10-28T11:25:02.805Z,1.80
2022-10-28T11:28:06.379Z,2.28
2022-10-28T11:30:55.423Z,1.08
2022-10-28T11:33:45.661Z,1.05
2022-10-28T11:36:12.988Z,1.17
2022-10-28T11:38:49.227Z,1.45
2022-10-28T11:41:24.161Z,1.10
2022-10-28T11:43:59.636Z,1.25
2022-10-28T11:46:38.570Z,1.08
2022-10-28T11:49:08.990Z,1.33
2022-10-28T11:51:54.727Z,1.33
2022-10-28T11:54:22.045Z,1.23
2022-10-28T11:57:05.930Z,1.30
2022-10-28T11:59:57.940Z,1.30
2022-10-28T12:02:34.081Z,2.10
2022-10-28T12:05:40.934Z,1.60
2022-10-28T12:08:41.550Z,1.85
2022-10-28T12:11:47.034Z,2.20
2022-10-28T12:14:23.006Z,1.75
2022-10-28T12:17:17.595Z,1.90
2022-10-28T12:19:53.834Z,1.50
2022-10-28T12:22:29.437Z,1.65
2022-10-28T12:24:58.410Z,2.95
2022-10-28T12:27:33.897Z,2.00
2022-10-28T12:30:21.793Z,2.05
2022-10-28T12:32:54.475Z,1.67
2022-10-28T12:35:26.048Z,1.70
2022-10-28T12:38:06.704Z,2.13
2022-10-28T12:40:56.015Z,2.38
2022-10-28T12:43:42.260Z,2.50
2022-10-28T12:46:28.417Z,1.70
2022-10-28T12:49:03.637Z,1.52
2022-10-28T12:51:36.340Z,1.63
2022-10-28T12:54:15.084Z,2.33
2022-10-28T12:56:59.688Z,1.73
2022-10-28T12:59:44.657Z,2.72
2022-10-28T13:02:22.167Z,2.97
2022-10-28T13:04:50.038Z,1.88
2022-10-28T13:07:38.385Z,1.80
2022-10-28T13:10:31.555Z,2.80
2022-10-28T13:13:14.671Z,2.20
2022-10-28T13:15:49.129Z,1.77
2022-10-28T13:18:25.379Z,2.30
2022-10-28T13:20:58.654Z,1.77
2022-10-28T13:23:41.179Z,1.67
2022-10-28T13:26:26.513Z,1.60
2022-10-28T13:28:56.955Z,1.45
2022-10-28T13:31:35.723Z,2.03
2022-10-28T13:34:03.396Z,2.00
2022-10-28T13:36:38.604Z,1.83
2022-10-28T13:39:22.658Z,2.10
2022-10-28T13:42:13.514Z,1.75
2022-10-28T13:45:06.515Z,2.90
2022-10-28T13:47:38.248Z,1.85
2022-10-28T13:50:09.208Z,1.25
2022-10-28T13:52:41.814Z,2.80
2022-10-28T13:55:26.542Z,2.03
2022-10-28T13:58:19.268Z,1.75
2022-10-28T14:00:49.165Z,1.95
2022-10-28T14:03:24.378Z,1.70
2022-10-28T14:05:58.209Z,1.73
2022-10-28T14:08:35.490Z,1.88
2022-10-28T14:11:29.255Z,1.73
2022-10-28T14:14:04.206Z,1.60
2022-10-28T14:16:31.611Z,1.40
2022-10-28T14:19:10.850Z,1.48
2022-10-28T14:21:40.342Z,1.77
2022-10-28T14:24:14.167Z,2.00
2022-10-28T14:27:09.992Z,2.20
2022-10-28T14:29:57.364Z,1.60
2022-10-28T14:32:33.749Z,2.20
2022-10-28T14:35:13.308Z,1.55
2022-10-28T14:38:07.322Z,2.80
2022-10-28T14:40:56.511Z,1.55
2022-10-28T14:43:37.449Z,1.65
2022-10-28T14:48:52.191Z,1.15
2022-10-28T14:51:23.570Z,0.80
2022-10-28T14:53:56.466Z,0.77
2022-10-28T14:56:31.202Z,1.00
2022-10-28T14:59:21.669Z,1.38
2022-10-28T15:02:04.101Z,0.90
2022-10-28T15:04:31.970Z,1.65
2022-10-28T15:07:00.113Z,0.88
2022-10-28T15:09:30.468Z,1.35
2022-10-28T15:12:26.193Z,1.00
2022-10-28T15:14:56.390Z,0.70
2022-10-28T15:17:29.243Z,1.13
2022-10-28T15:20:00.706Z,0.70
2022-10-28T15:22:31.277Z,0.82
2022-10-28T15:25:06.177Z,0.60
2022-10-28T15:27:41.400Z,0.80
2022-10-28T15:30:23.556Z,0.80
2022-10-28T15:32:52.503Z,0.80
2022-10-28T15:35:35.283Z,0.80
2022-10-28T15:38:23.358Z,0.82
2022-10-28T15:40:50.876Z,0.80
2022-10-28T15:43:27.893Z,1.20
2022-10-28T15:46:10.784Z,1.27
2022-10-28T15:48:38.350Z,1.13
2022-10-28T15:51:16.120Z,0.80
2022-10-28T15:53:48.950Z,0.90
2022-10-28T15:56:24.448Z,0.88
2022-10-28T15:59:27.536Z,0.60
2022-10-28T16:01:56.577Z,0.88
2022-10-28T16:04:24.174Z,1.23
2022-10-28T16:06:54.431Z,0.85
2022-10-28T16:09:32.747Z,0.82
2022-10-28T16:12:12.116Z,0.75
2022-10-28T16:15:13.294Z,1.15
2022-10-28T16:20:20.519Z,0.73
2022-10-28T16:22:48.464Z,1.20
2022-10-28T16:25:20.122Z,1.10
2022-10-28T16:27:48.982Z,0.90
2022-10-28T16:30:16.853Z,1.17
2022-10-28T16:32:47.597Z,1.50
2022-10-28T16:35:20.034Z,0.90
2022-10-28T16:37:50.693Z,0.90
2022-10-28T16:43:15.293Z,1.00
2022-10-28T16:45:43.034Z,0.77
2022-10-28T16:48:13.217Z,1.33
2022-10-28T16:50:43.788Z,2.10
2022-10-28T16:53:12.913Z,1.40
2022-10-28T16:55:40.913Z,1.17
2022-10-28T16:58:08.499Z,1.00
2022-10-28T17:00:36.544Z,1.15
2022-10-28T17:03:04.052Z,1.35
2022-10-28T17:05:31.686Z,1.90
2022-10-28T17:07:59.856Z,1.95
2022-10-28T17:10:28.285Z,1.70
2022-10-28T17:12:56.398Z,2.15
2022-10-28T17:15:24.082Z,2.20
2022-10-28T17:17:53.105Z,1.80
2022-10-28T17:20:20.910Z,2.03
2022-10-28T17:22:48.397Z,1.50
2022-10-28T17:25:16.158Z,1.88
2022-10-28T17:27:48.355Z,1.92
2022-10-28T17:30:18.693Z,2.33
2022-10-28T17:32:51.394Z,2.05
2022-10-28T17:35:22.840Z,1.83
2022-10-28T17:37:50.195Z,1.63
2022-10-28T17:40:17.690Z,2.03
2022-10-28T17:42:45.019Z,2.15
2022-10-28T17:45:14.439Z,1.80
2022-10-28T17:47:43.881Z,1.73
2022-10-28T17:50:11.233Z,1.90
2022-10-28T17:52:38.730Z,2.00
2022-10-28T17:55:06.747Z,2.28
2022-10-28T17:57:34.171Z,2.13
2022-10-28T18:00:01.614Z,2.28
2022-10-28T18:02:29.219Z,2.13
2022-10-28T18:04:56.519Z,2.20
2022-10-28T18:07:23.679Z,2.40
2022-10-28T18:09:51.714Z,2.50
2022-10-28T18:12:19.054Z,2.38
2022-10-28T18:14:46.424Z,2.13
2022-10-28T18:17:14.678Z,2.95
2022-10-28T18:19:42.121Z,2.10
2022-10-28T18:22:11.141Z,2.22
2022-10-28T18:24:38.592Z,2.75
2022-10-28T18:27:05.944Z,2.95
2022-10-28T18:29:33.495Z,2.30
2022-10-28T18:32:04.306Z,2.30
2022-10-28T18:34:32.201Z,2.60
2022-10-28T18:36:59.664Z,2.85
2022-10-28T18:39:27.158Z,2.58
2022-10-28T18:41:54.541Z,2.70
2022-10-28T18:44:26.990Z,2.55
2022-10-28T18:46:54.416Z,2.55
2022-10-28T18:49:21.757Z,3.45
2022-10-28T18:51:49.121Z,3.25
2022-10-28T18:54:16.508Z,2.67
2022-10-28T18:56:47.635Z,1.70
2022-10-28T18:59:16.078Z,2.45
2022-10-28T19:01:46.804Z,3.78
2022-10-28T19:06:42.775Z,2.60
2022-10-28T19:09:10.188Z,2.40
2022-10-28T19:11:37.665Z,2.58
2022-10-28T19:14:06.580Z,2.22
2022-10-28T19:16:34.782Z,2.05
2022-10-28T19:19:04.778Z,2.58
2022-10-28T19:21:32.834Z,2.50
2022-10-28T19:24:00.555Z,3.00
2022-10-28T19:26:28.278Z,3.05
2022-10-28T19:28:55.657Z,2.60
2022-10-28T19:31:24.931Z,2.65
2022-10-28T19:33:53.507Z,2.80
2022-10-28T19:36:26.288Z,3.78
2022-10-28T19:38:55.507Z,3.88
2022-10-28T19:41:25.938Z,3.25
2022-10-28T19:43:59.065Z,3.95
2022-10-28T19:46:28.642Z,4.40
2022-10-28T19:49:00.825Z,3.10
2022-10-28T19:51:30.580Z,3.53
2022-10-28T19:54:00.227Z,3.30
2022-10-28T19:56:29.447Z,3.20
2022-10-28T19:58:58.780Z,3.13
2022-10-28T20:01:29.197Z,3.13
2022-10-28T20:03:57.199Z,2.78
2022-10-28T20:06:27.313Z,4.40
2022-10-28T20:08:54.745Z,3.90
2022-10-28T20:11:26.306Z,3.22
2022-10-28T20:13:57.204Z,3.45
2022-10-28T20:16:25.184Z,4.10
2022-10-28T20:18:54.253Z,3.22
2022-10-28T20:21:23.325Z,3.38
2022-10-28T20:23:56.029Z,3.72
2022-10-28T20:26:28.496Z,3.40
2022-10-28T20:28:56.444Z,3.88
2022-10-28T20:31:29.452Z,3.97
2022-10-28T20:33:58.851Z,3.35
2022-10-28T20:36:29.199Z,3.67
2022-10-28T20:38:57.634Z,3.30
2022-10-28T20:41:27.388Z,3.55
2022-10-28T20:43:55.427Z,4.70
2022-10-28T20:46:24.341Z,3.53
2022-10-28T20:48:54.246Z,3.00
2022-10-28T20:51:26.445Z,3.15
2022-10-28T20:53:54.023Z,2.97
2022-10-28T20:56:26.203Z,3.58
2022-10-28T20:58:55.841Z,3.35
2022-10-28T21:01:32.034Z,3.63
2022-10-28T21:04:05.621Z,3.15
2022-10-28T21:06:33.526Z,3.55
2022-10-28T21:09:00.950Z,3.65
2022-10-28T21:11:28.942Z,3.35
2022-10-28T21:13:59.577Z,3.10
2022-10-28T21:16:28.487Z,3.55
2022-10-28T21:18:56.265Z,3.63
2022-10-28T21:21:24.910Z,4.20
2022-10-28T21:23:52.531Z,4.45
2022-10-28T21:26:20.131Z,3.00
2022-10-28T21:28:52.142Z,3.20
2022-10-28T21:31:21.069Z,3.30
2022-10-28T21:36:19.791Z,3.45
2022-10-28T21:38:47.551Z,3.40
2022-10-28T21:41:18.208Z,3.00
2022-10-28T21:43:50.824Z,3.92
2022-10-28T21:46:20.282Z,3.05
2022-10-28T21:48:47.965Z,3.30
2022-10-28T21:51:16.585Z,3.33
2022-10-28T21:53:44.777Z,3.20
2022-10-28T21:56:19.311Z,2.72
2022-10-28T21:58:48.779Z,3.65
2022-10-28T22:01:23.822Z,3.63
2022-10-28T22:03:52.332Z,4.93
2022-10-28T22:06:19.776Z,4.13
2022-10-28T22:08:47.621Z,3.80
2022-10-28T22:11:20.510Z,4.45
2022-10-28T22:13:54.747Z,4.53
2022-10-28T22:16:22.209Z,4.70
2022-10-28T22:18:49.562Z,4.38
2022-10-28T22:21:25.531Z,4.30
2022-10-28T22:23:53.396Z,4.28
2022-10-28T22:26:23.381Z,4.70
2022-10-28T22:28:51.575Z,4.82
2022-10-28T22:31:22.687Z,4.70
2022-10-28T22:33:50.659Z,5.18
2022-10-28T22:36:20.776Z,4.82
2022-10-28T22:38:49.225Z,4.47
2022-10-28T22:41:23.708Z,3.92
2022-10-28T22:43:53.679Z,4.72
2022-10-28T22:46:22.276Z,5.07
2022-10-28T22:48:49.924Z,5.00
2022-10-28T22:51:18.082Z,5.07
2022-10-28T22:53:45.763Z,5.53
2022-10-28T22:56:21.743Z,5.53
2022-10-28T22:58:53.181Z,4.50
2022-10-28T23:01:21.452Z,4.63
2022-10-28T23:03:50.927Z,5.57
2022-10-28T23:06:23.501Z,4.97
2022-10-28T23:08:50.978Z,5.20
2022-10-28T23:11:20.006Z,5.88
2022-10-28T23:13:52.340Z,5.20
2022-10-28T23:16:20.300Z,5.10
2022-10-28T23:18:48.827Z,4.80
2022-10-28T23:21:18.775Z,4.95
2022-10-28T23:23:51.129Z,5.70
2022-10-28T23:26:21.885Z,5.25
2022-10-28T23:28:54.217Z,4.50
2022-10-28T23:31:22.566Z,5.80
2022-10-28T23:33:50.625Z,5.07
2022-10-28T23:36:18.073Z,5.22
2022-10-28T23:38:45.490Z,5.50
2022-10-28T23:41:18.079Z,5.53
2022-10-28T23:43:45.741Z,5.70
2022-10-28T23:46:13.172Z,5.47
2022-10-28T23:48:40.605Z,5.85
2022-10-28T23:51:08.379Z,5.55
2022-10-28T23:53:35.778Z,5.43
2022-10-28T23:56:03.301Z,5.82
2022-10-28T23:58:30.844Z,5.82
